Time;durP1;ratioP1;P1;durP2;ratioP2;P2;SDS_P1;SDS_P2;PMS_P1;PMS_P2;Temp;Humidity;BMP_temperature;BMP_pressure;BME280_temperature;BME280_humidity;BME280_pressure;Samples;Min_cycle;Max_cycle;Signal;HPM_P1;HPM_P2
2023/06/16 00:02:21;;;;;;;6.30;5.70;;;;;;;17.82;58.60;98657.88;5084714;27;103267;-74
2023/06/16 00:04:50;;;;;;;7.10;5.80;;;;;;;17.89;58.55;98669.63;5103296;27;103181;-74
2023/06/16 00:07:20;;;;;;;5.90;5.30;;;;;;;18.06;57.98;98657.19;5088577;27;103064;-74
2023/06/16 00:09:48;;;;;;;5.72;4.85;;;;;;;18.24;57.68;98662.47;5085856;27;103933;-74
2023/06/16 00:12:16;;;;;;;5.50;5.10;;;;;;;18.12;57.83;98667.25;5103598;27;103280;-74
2023/06/16 00:14:45;;;;;;;5.57;5.07;;;;;;;18.20;57.44;98666.47;5104199;27;103185;-74
2023/06/16 00:17:13;;;;;;;6.13;5.17;;;;;;;17.66;59.81;98660.44;5084256;27;103217;-74
2023/06/16 00:19:41;;;;;;;5.53;5.00;;;;;;;18.23;57.35;98664.31;5086333;27;104005;-74
2023/06/16 00:22:10;;;;;;;5.23;4.73;;;;;;;18.19;58.36;98667.47;5102932;27;104018;-75
2023/06/16 00:24:38;;;;;;;6.30;5.40;;;;;;;17.47;60.10;98670.44;5104968;27;103489;-75
2023/06/16 00:27:06;;;;;;;6.40;5.30;;;;;;;16.68;62.92;98679.19;5100903;27;102659;-75
2023/06/16 00:29:34;;;;;;;5.80;5.20;;;;;;;16.64;63.00;98677.00;5085557;27;102833;-75
2023/06/16 00:32:04;;;;;;;5.10;4.60;;;;;;;17.18;61.09;98678.69;5083299;27;103748;-74
2023/06/16 00:34:32;;;;;;;6.63;5.05;;;;;;;17.46;59.88;98674.13;5081536;27;103206;-74
2023/06/16 00:37:00;;;;;;;4.55;4.15;;;;;;;17.99;57.97;98660.69;5102899;27;102648;-75
2023/06/16 00:39:28;;;;;;;4.00;3.70;;;;;;;18.14;57.24;98656.41;5085762;27;103004;-74
2023/06/16 00:41:55;;;;;;;5.30;4.80;;;;;;;18.25;57.35;98659.63;5082567;27;103844;-74
2023/06/16 00:44:26;;;;;;;4.87;4.47;;;;;;;18.27;57.77;98654.97;5100290;27;103936;-74
2023/06/16 00:46:54;;;;;;;5.03;4.63;;;;;;;18.32;57.75;98657.16;5083224;27;102980;-75
2023/06/16 00:49:26;;;;;;;5.93;5.40;;;;;;;18.05;58.75;98644.00;5082472;27;104732;-75
2023/06/16 00:51:54;;;;;;;5.55;5.05;;;;;;;18.08;58.73;98654.38;5102063;27;103168;-75
2023/06/16 00:54:22;;;;;;;6.25;5.63;;;;;;;17.98;59.27;98648.31;5081322;27;103163;-75
2023/06/16 00:56:51;;;;;;;5.45;4.95;;;;;;;18.22;58.12;98643.06;5085567;27;102809;-75
2023/06/16 00:59:26;;;;;;;5.40;4.90;;;;;;;18.22;58.04;98646.59;5104368;27;102943;-75
2023/06/16 01:01:55;;;;;;;6.40;5.28;;;;;;;17.54;60.64;98653.72;5086494;27;103839;-75
2023/06/16 01:04:24;;;;;;;5.83;5.33;;;;;;;17.86;58.85;98661.09;5103705;27;103000;-74
2023/06/16 01:07:02;;;;;;;6.13;5.57;;;;;;;17.32;61.22;98662.16;5083452;27;103031;-75
2023/06/16 01:09:40;;;;;;;5.68;5.15;;;;;;;17.03;62.33;98656.22;5106213;27;103777;-75
2023/06/16 01:12:18;;;;;;;6.38;5.78;;;;;;;16.40;65.01;98668.66;5082296;27;103526;-75
2023/06/16 01:14:54;;;;;;;6.03;5.47;;;;;;;16.61;64.43;98666.63;5085230;27;103413;-75
2023/06/16 01:17:24;;;;;;;6.35;5.75;;;;;;;16.32;65.49;98663.22;5084005;27;102675;-75
2023/06/16 01:20:07;;;;;;;4.55;4.15;;;;;;;16.95;62.48;98665.00;5087849;27;102740;-75
2023/06/16 01:22:53;;;;;;;6.00;5.50;;;;;;;16.90;63.31;98658.44;5083220;27;104476;-75
2023/06/16 01:25:24;;;;;;;5.63;5.13;;;;;;;16.91;62.92;98657.44;5082123;27;104117;-75
2023/06/16 01:27:53;;;;;;;4.80;4.40;;;;;;;17.40;60.57;98659.56;5086270;27;102602;-75
2023/06/16 01:30:24;;;;;;;5.60;5.10;;;;;;;17.32;60.59;98667.47;5087624;27;103044;-75
2023/06/16 01:32:54;;;;;;;5.97;5.47;;;;;;;16.72;63.55;98664.59;5082382;27;104465;-76
2023/06/16 01:35:23;;;;;;;6.30;5.70;;;;;;;16.84;62.95;98661.69;5101384;27;103199;-75
2023/06/16 01:37:58;;;;;;;5.77;5.20;;;;;;;17.08;61.41;98656.59;5081027;27;103036;-75
2023/06/16 01:40:31;;;;;;;5.25;4.75;;;;;;;17.37;60.23;98654.53;5086336;27;102761;-75
2023/06/16 01:43:00;;;;;;;5.03;4.57;;;;;;;17.49;59.50;98647.94;5100368;27;104103;-75
2023/06/16 01:45:29;;;;;;;5.70;5.17;;;;;;;17.36;60.73;98650.19;5099653;27;103281;-75
2023/06/16 01:47:57;;;;;;;5.68;5.25;;;;;;;17.11;61.91;98653.63;5083556;27;102794;-75
2023/06/16 01:50:25;;;;;;;5.87;5.17;;;;;;;16.99;62.52;98654.84;5084991;27;104173;-75
2023/06/16 01:52:53;;;;;;;6.30;5.70;;;;;;;16.57;64.44;98662.56;5083940;27;104183;-75
2023/06/16 01:55:21;;;;;;;6.50;5.90;;;;;;;16.14;66.08;98663.19;5085542;27;103441;-75
2023/06/16 01:57:53;;;;;;;6.00;5.43;;;;;;;15.85;67.84;98662.44;5080413;27;102749;-75
2023/06/16 02:00:26;;;;;;;5.93;5.43;;;;;;;16.04;66.47;98662.38;5081366;27;104474;-75
2023/06/16 02:03:00;;;;;;;5.38;4.63;;;;;;;16.34;65.17;98666.56;5104530;27;104043;-75
2023/06/16 02:05:31;;;;;;;5.60;5.00;;;;;;;16.72;63.36;98664.59;5081371;27;103536;-75
2023/06/16 02:08:02;;;;;;;4.43;4.13;;;;;;;16.95;62.13;98665.00;5081839;27;103087;-74
2023/06/16 02:10:32;;;;;;;6.40;5.90;;;;;;;16.33;65.12;98668.44;5085792;27;102719;-75
2023/06/16 02:13:02;;;;;;;6.40;5.80;;;;;;;16.09;66.40;98674.25;5084543;27;103273;-74
2023/06/16 02:15:32;;;;;;;5.57;5.07;;;;;;;16.33;65.85;98673.75;5101494;27;103194;-75
2023/06/16 02:18:02;;;;;;;5.45;5.05;;;;;;;16.47;65.18;98667.94;5084535;27;102648;-75
2023/06/16 02:20:30;;;;;;;4.82;4.43;;;;;;;16.88;63.30;98668.41;5085291;27;103300;-74
2023/06/16 02:22:59;;;;;;;5.18;4.78;;;;;;;17.07;62.12;98666.44;5084815;27;103721;-75
2023/06/16 02:25:27;;;;;;;5.57;5.07;;;;;;;17.21;61.70;98670.38;5083919;27;103235;-74
2023/06/16 02:27:55;;;;;;;6.10;5.60;;;;;;;16.59;65.06;98674.75;5102081;27;102710;-75
2023/06/16 02:30:24;;;;;;;6.18;5.57;;;;;;;16.36;65.92;98668.13;5083977;27;103989;-75
2023/06/16 02:32:52;;;;;;;5.05;4.65;;;;;;;16.87;63.95;98677.41;5101890;27;103357;-75
2023/06/16 02:35:30;;;;;;;4.10;3.80;;;;;;;17.23;62.06;98673.78;5081276;27;103334;-75
2023/06/16 02:37:58;;;;;;;4.32;3.90;;;;;;;17.44;60.81;98679.63;5084808;27;102749;-75
2023/06/16 02:40:26;;;;;;;5.07;4.68;;;;;;;17.59;60.62;98683.44;5083616;27;104112;-76
2023/06/16 02:42:54;;;;;;;4.80;4.40;;;;;;;17.51;61.40;98672.69;5080774;27;105402;-76
2023/06/16 02:45:24;;;;;;;5.90;5.37;;;;;;;17.20;62.77;98671.41;5102384;27;103443;-75
2023/06/16 02:47:52;;;;;;;5.60;5.10;;;;;;;17.31;61.83;98677.34;5085710;27;102616;-75
2023/06/16 02:50:22;;;;;;;5.50;5.00;;;;;;;17.37;62.28;98673.22;5086022;27;103600;-75
2023/06/16 02:52:51;;;;;;;5.50;5.10;;;;;;;17.35;62.36;98672.53;5082427;27;104249;-75
2023/06/16 02:55:20;;;;;;;6.00;5.50;;;;;;;17.25;63.30;98669.09;5084579;27;103006;-75
2023/06/16 02:57:53;;;;;;;5.22;4.72;;;;;;;17.37;61.96;98674.03;5084007;27;102737;-75
2023/06/16 03:00:23;;;;;;;5.70;5.20;;;;;;;17.23;63.10;98679.94;5084513;27;102770;-75
2023/06/16 03:03:10;;;;;;;6.63;6.05;;;;;;;17.32;62.96;98678.16;5102734;27;103183;-75
2023/06/16 03:05:41;;;;;;;5.95;5.35;;;;;;;17.33;62.63;98670.00;5084053;27;103190;-75
2023/06/16 03:08:09;;;;;;;5.03;4.53;;;;;;;17.52;61.09;98674.34;5083174;27;102713;-75
2023/06/16 03:10:37;;;;;;;5.00;4.60;;;;;;;17.64;61.30;98673.13;5085645;27;102767;-74
2023/06/16 03:13:12;;;;;;;5.20;4.70;;;;;;;17.73;60.88;98671.34;5103568;27;104210;-75
2023/06/16 03:15:43;;;;;;;5.50;5.00;;;;;;;17.69;61.85;98676.16;5083534;27;103392;-75
2023/06/16 03:18:11;;;;;;;6.07;5.50;;;;;;;17.57;63.35;98666.72;5103743;27;103205;-75
2023/06/16 03:20:40;;;;;;;6.95;5.80;;;;;;;17.24;64.36;98675.44;5085481;27;103704;-75
2023/06/16 03:23:18;;;;;;;5.10;4.70;;;;;;;17.47;62.62;98681.97;5081920;27;103287;-76
2023/06/16 03:25:47;;;;;;;4.70;4.30;;;;;;;17.69;61.25;98676.16;5081110;27;103443;-75
2023/06/16 03:28:19;;;;;;;4.88;4.47;;;;;;;17.73;61.74;98680.22;5080487;27;102734;-75
2023/06/16 03:30:52;;;;;;;5.00;4.60;;;;;;;17.72;60.87;98675.00;5080861;27;103825;-74
2023/06/16 03:33:32;;;;;;;3.90;3.60;;;;;;;17.85;60.03;98678.13;5081890;27;104143;-75
2023/06/16 03:36:02;;;;;;;5.50;5.00;;;;;;;17.62;61.75;98674.28;5079782;27;105167;-75
2023/06/16 03:38:39;;;;;;;4.95;4.55;;;;;;;17.57;61.84;98685.41;5085049;27;102630;-75
2023/06/16 03:41:07;;;;;;;5.63;5.13;;;;;;;17.62;61.62;98685.81;5082208;27;103676;-75
2023/06/16 03:43:35;;;;;;;5.70;5.20;;;;;;;17.55;61.90;98681.22;5081659;27;103263;-75
2023/06/16 03:46:05;;;;;;;5.17;4.70;;;;;;;17.61;61.82;98684.13;5081616;27;103201;-75
2023/06/16 03:48:33;;;;;;;5.15;4.72;;;;;;;17.72;60.37;98678.53;5083523;27;104085;-70
2023/06/16 03:51:03;;;;;;;5.70;5.20;;;;;;;17.58;61.48;98683.59;5077722;27;102873;-70
2023/06/16 03:53:31;;;;;;;5.47;4.97;;;;;;;17.42;62.41;98688.78;5079216;27;104153;-70
2023/06/16 03:55:59;;;;;;;6.00;5.50;;;;;;;17.06;64.75;98685.28;5081155;27;105389;-70
2023/06/16 03:58:28;;;;;;;5.00;4.33;;;;;;;17.41;62.55;98682.59;5076163;27;102962;-70
2023/06/16 04:00:57;;;;;;;6.22;5.63;;;;;;;16.88;65.03;98692.41;5081689;27;104482;-70
2023/06/16 04:03:27;;;;;;;7.15;6.45;;;;;;;16.46;66.96;98690.25;5082809;27;104333;-70
2023/06/16 04:05:55;;;;;;;6.85;6.10;;;;;;;16.32;67.92;98693.38;5081329;27;105608;-71
2023/06/16 04:08:23;;;;;;;5.28;4.88;;;;;;;17.07;63.81;98694.94;5082288;27;102999;-70
2023/06/16 04:10:57;;;;;;;6.90;6.20;;;;;;;16.54;67.05;98695.69;5078205;27;104194;-70
2023/06/16 04:13:26;;;;;;;5.20;4.80;;;;;;;17.15;64.79;98690.53;5080670;27;102951;-69
2023/06/16 04:15:54;;;;;;;4.82;4.43;;;;;;;17.46;63.21;98690.97;5102228;27;103253;-70
2023/06/16 04:18:22;;;;;;;6.60;5.43;;;;;;;17.33;64.84;98693.19;5079689;27;103098;-70
2023/06/16 04:20:52;;;;;;;5.73;5.23;;;;;;;17.39;65.71;98696.09;5102869;27;104593;-69
2023/06/16 04:23:20;;;;;;;7.28;6.00;;;;;;;17.24;66.78;98694.13;5084720;27;104485;-70
2023/06/16 04:25:48;;;;;;;5.90;5.40;;;;;;;17.43;65.53;98699.31;5073508;27;104156;-76
2023/06/16 04:28:17;;;;;;;4.87;4.47;;;;;;;17.62;64.97;98691.16;5085379;27;102729;-77
2023/06/16 04:30:50;;;;;;;6.57;5.97;;;;;;;17.57;67.08;98698.78;5083717;27;103153;-75
2023/06/16 04:33:22;;;;;;;4.20;3.80;;;;;;;17.82;64.70;98697.16;5083601;27;105408;-76
2023/06/16 04:35:53;;;;;;;5.07;4.65;;;;;;;17.94;63.61;98696.72;5083479;27;103166;-70
2023/06/16 04:38:23;;;;;;;6.32;5.72;;;;;;;17.85;64.17;98697.66;5105734;27;102978;-71
2023/06/16 04:40:52;;;;;;;6.10;5.60;;;;;;;17.79;65.19;98698.31;5086703;27;104486;-71
2023/06/16 04:43:20;;;;;;;4.88;4.47;;;;;;;18.00;63.89;98694.41;5088481;27;103587;-71
2023/06/16 04:45:48;;;;;;;5.20;4.70;;;;;;;18.20;63.79;98695.88;5083854;27;103307;-71
2023/06/16 04:48:20;;;;;;;4.57;4.18;;;;;;;18.29;62.39;98689.56;5082497;27;102739;-69
2023/06/16 04:50:48;;;;;;;4.88;4.47;;;;;;;18.39;63.20;98695.63;5081541;27;102778;-69
2023/06/16 04:53:20;;;;;;;5.63;5.13;;;;;;;18.47;62.31;98682.28;5100812;27;103078;-73
2023/06/16 04:55:48;;;;;;;7.33;6.63;;;;;;;18.49;63.05;98683.03;5085273;27;103261;-71
2023/06/16 04:58:16;;;;;;;7.47;6.68;;;;;;;18.59;63.36;98681.03;5083800;27;103904;-71
2023/06/16 05:00:44;;;;;;;6.25;5.65;;;;;;;18.71;62.55;98684.25;5078156;27;103993;-70
2023/06/16 05:03:12;;;;;;;6.85;6.20;;;;;;;18.57;61.80;98687.56;5082775;27;104189;-71
2023/06/16 05:05:40;;;;;;;5.75;5.25;;;;;;;18.72;63.16;98688.63;5084389;27;106259;-71
2023/06/16 05:08:09;;;;;;;5.90;5.40;;;;;;;18.79;62.42;98692.31;5084758;27;103271;-71
2023/06/16 05:10:40;;;;;;;7.05;6.03;;;;;;;18.65;60.76;98691.09;5102613;27;102567;-71
2023/06/16 05:13:07;;;;;;;5.82;5.22;;;;;;;18.89;60.28;98696.53;5086070;27;103280;-71
2023/06/16 05:15:36;;;;;;;7.35;6.65;;;;;;;18.46;61.34;98688.66;5083746;27;103327;-71
2023/06/16 05:18:04;;;;;;;5.50;5.00;;;;;;;18.87;61.74;98690.50;5082749;27;102671;-71
2023/06/16 05:20:33;;;;;;;5.27;4.87;;;;;;;19.12;60.58;98694.06;5083759;27;102935;-71
2023/06/16 05:23:03;;;;;;;6.17;5.60;;;;;;;19.22;60.37;98699.28;5082843;27;103419;-70
2023/06/16 05:25:32;;;;;;;5.77;5.27;;;;;;;19.36;59.04;98696.78;5085530;27;104356;-71
2023/06/16 05:28:05;;;;;;;7.88;7.18;;;;;;;19.42;60.08;98695.31;5082184;27;103014;-72
2023/06/16 05:30:34;;;;;;;5.47;5.07;;;;;;;19.54;58.33;98688.59;5082541;27;104046;-72
2023/06/16 05:33:04;;;;;;;6.63;6.03;;;;;;;19.57;59.67;98690.97;5084467;27;103129;-71
2023/06/16 05:35:33;;;;;;;7.17;6.57;;;;;;;19.55;60.77;98690.28;5085489;27;103245;-71
2023/06/16 05:38:02;;;;;;;5.82;5.30;;;;;;;19.77;60.15;98692.28;5082526;27;102625;-72
2023/06/16 05:40:30;;;;;;;5.25;4.85;;;;;;;19.96;59.31;98693.75;5084144;27;102761;-71
2023/06/16 05:43:00;;;;;;;5.63;5.13;;;;;;;20.11;56.64;98690.25;5083903;27;103362;-71
2023/06/16 05:45:30;;;;;;;6.25;5.65;;;;;;;20.24;55.63;98700.41;5073520;27;103383;-72
2023/06/16 05:48:00;;;;;;;6.63;6.03;;;;;;;20.24;55.79;98697.72;5086975;27;102951;-86
2023/06/16 05:50:29;;;;;;;6.40;5.80;;;;;;;20.32;56.40;98696.94;5105496;27;103918;-86
2023/06/16 05:52:57;;;;;;;7.60;6.90;;;;;;;20.21;56.75;98693.56;5087148;27;103340;-85
2023/06/16 05:55:24;;;;;;;6.90;6.20;;;;;;;19.79;58.09;98692.94;5092736;27;103212;-86
2023/06/16 05:57:57;;;;;;;6.78;6.18;;;;;;;20.17;58.04;98697.59;5087468;27;103223;-86
2023/06/16 06:00:26;;;;;;;8.40;7.10;;;;;;;20.16;57.37;98695.91;5088173;27;103563;-86
2023/06/16 06:03:03;;;;;;;6.60;6.00;;;;;;;20.36;56.89;98706.28;5064007;27;103427;-87
2023/06/16 06:05:36;;;;;;;4.45;4.05;;;;;;;20.71;53.62;98708.53;5064025;27;103597;-87
2023/06/16 06:08:05;;;;;;;6.00;5.32;;;;;;;20.73;54.81;98703.81;5068513;27;102735;-86
2023/06/16 06:10:33;;;;;;;6.03;5.40;;;;;;;20.73;53.92;98703.81;5085821;27;104371;-86
2023/06/16 06:13:03;;;;;;;7.60;5.32;;;;;;;20.89;55.12;98710.94;5066030;27;103418;-86
2023/06/16 06:15:32;;;;;;;7.00;6.30;;;;;;;20.63;54.83;98716.63;5064966;27;103047;-86
2023/06/16 06:18:07;;;;;;;8.43;6.20;;;;;;;20.31;54.41;98714.03;5065313;27;102739;-86
2023/06/16 06:20:40;;;;;;;7.18;6.47;;;;;;;20.84;54.47;98714.16;5066746;27;102641;-87
2023/06/16 06:23:08;;;;;;;9.73;7.27;;;;;;;20.03;55.61;98722.44;5064099;27;105055;-87
2023/06/16 06:25:40;;;;;;;9.68;7.40;;;;;;;19.88;56.22;98729.47;5066019;27;103459;-86
2023/06/16 06:28:09;;;;;;;7.13;6.40;;;;;;;20.77;55.10;98723.94;5065339;27;102708;-85
2023/06/16 06:30:38;;;;;;;7.70;6.20;;;;;;;20.96;53.68;98725.34;5083713;27;103714;-85
2023/06/16 06:33:07;;;;;;;5.43;4.93;;;;;;;21.53;55.26;98723.19;5056147;27;103755;-84
2023/06/16 06:35:38;;;;;;;7.75;6.95;;;;;;;21.44;52.92;98735.84;5068803;27;103168;-84
2023/06/16 06:38:07;;;;;;;8.13;6.82;;;;;;;21.70;52.28;98724.69;5086567;27;102652;-86
2023/06/16 06:40:36;;;;;;;6.32;5.72;;;;;;;21.90;51.48;98725.91;5068381;27;102692;-85
2023/06/16 06:43:05;;;;;;;6.28;5.68;;;;;;;22.10;50.15;98720.84;5063194;27;105076;-85
2023/06/16 06:45:53;;;;;;;5.78;5.28;;;;;;;22.41;48.98;98725.06;5066868;27;103257;-86
2023/06/16 06:48:23;;;;;;;8.25;6.18;;;;;;;22.22;49.94;98725.63;5062052;27;102779;-85
2023/06/16 06:50:56;;;;;;;7.70;6.50;;;;;;;22.05;51.82;98739.41;5069855;27;103071;-85
2023/06/16 06:53:24;;;;;;;8.15;5.95;;;;;;;22.27;48.77;98733.13;5085938;27;102562;-85
2023/06/16 06:55:52;;;;;;;6.15;5.53;;;;;;;22.54;48.71;98736.00;5066593;27;103013;-85
2023/06/16 06:58:20;;;;;;;6.28;5.30;;;;;;;22.66;50.38;98738.28;5066897;27;102742;-85
2023/06/16 07:00:48;;;;;;;6.72;5.00;;;;;;;22.61;48.63;98746.88;5086482;27;102699;-85
2023/06/16 07:03:16;;;;;;;6.27;5.67;;;;;;;22.72;48.71;98737.53;5085012;27;103449;-85
2023/06/16 07:05:45;;;;;;;7.07;5.97;;;;;;;22.10;49.80;98748.59;5064609;27;103399;-86
2023/06/16 07:08:13;;;;;;;4.30;3.90;;;;;;;22.86;48.71;98742.91;5063440;27;102880;-86
2023/06/16 07:10:43;;;;;;;4.70;4.30;;;;;;;23.38;47.97;98741.91;5082200;27;104026;-72
2023/06/16 07:13:11;;;;;;;7.47;5.90;;;;;;;23.33;47.26;98742.44;5074255;27;105393;-72
2023/06/16 07:15:41;;;;;;;5.20;4.68;;;;;;;23.55;49.15;98741.47;5079751;27;104060;-72
2023/06/16 07:18:10;;;;;;;4.78;4.28;;;;;;;23.76;48.38;98742.50;5075515;27;102677;-70
2023/06/16 07:20:38;;;;;;;5.38;4.88;;;;;;;23.76;47.02;98747.88;5079909;27;104379;-73
2023/06/16 07:23:07;;;;;;;6.05;5.18;;;;;;;23.20;47.77;98742.28;5078778;27;102597;-73
2023/06/16 07:25:36;;;;;;;5.30;4.78;;;;;;;23.80;45.88;98744.63;5081857;27;103177;-71
2023/06/16 07:28:05;;;;;;;4.82;4.43;;;;;;;24.14;45.35;98752.00;5073201;27;102708;-73
2023/06/16 07:30:33;;;;;;;5.20;4.22;;;;;;;24.28;45.86;98756.44;5073899;27;103637;-79
2023/06/16 07:33:01;;;;;;;4.35;4.00;;;;;;;23.69;46.83;98757.78;5057028;27;104671;-79
2023/06/16 07:35:31;;;;;;;6.82;4.70;;;;;;;23.52;43.47;98746.41;5083671;27;104319;-78
2023/06/16 07:37:59;;;;;;;6.07;4.60;;;;;;;23.23;43.95;98752.69;5068937;27;102960;-79
2023/06/16 07:40:28;;;;;;;5.63;4.53;;;;;;;23.94;42.57;98756.38;5086003;27;102865;-77
2023/06/16 07:42:56;;;;;;;4.23;3.83;;;;;;;24.31;42.31;98750.66;5082580;27;103275;-78
2023/06/16 07:45:24;;;;;;;4.80;4.20;;;;;;;24.27;40.30;98756.66;5082162;27;103254;-79
2023/06/16 07:47:52;;;;;;;4.43;4.03;;;;;;;24.60;41.44;98747.75;5069206;27;102795;-79
2023/06/16 07:50:20;;;;;;;5.22;4.07;;;;;;;24.45;40.12;98748.91;5070980;27;102798;-80
2023/06/16 07:52:48;;;;;;;6.25;4.45;;;;;;;24.11;40.62;98752.41;5066297;27;103473;-79
2023/06/16 07:55:16;;;;;;;4.90;4.25;;;;;;;24.40;40.76;98746.78;5091642;27;103527;-81
2023/06/16 07:57:46;;;;;;;4.13;3.73;;;;;;;25.48;41.07;98744.25;5070268;27;102942;-80
2023/06/16 08:00:16;;;;;;;5.33;4.37;;;;;;;24.65;39.49;98739.03;5070762;27;104088;-81
2023/06/16 08:02:44;;;;;;;6.57;4.15;;;;;;;25.39;38.00;98748.13;5086340;27;103260;-81
2023/06/16 08:05:16;;;;;;;5.03;4.10;;;;;;;25.15;37.37;98745.97;5085992;27;103307;-80
2023/06/16 08:07:44;;;;;;;5.07;4.18;;;;;;;25.56;36.75;98746.75;5086626;27;102581;-80
2023/06/16 08:10:12;;;;;;;5.60;3.63;;;;;;;26.15;39.24;98748.72;5088996;27;103972;-80
2023/06/16 08:12:43;;;;;;;5.37;3.90;;;;;;;26.15;37.57;98740.59;5081770;27;103774;-81
2023/06/16 08:15:13;;;;;;;4.93;4.00;;;;;;;25.97;39.79;98743.88;5081602;27;103599;-75
2023/06/16 08:17:41;;;;;;;5.63;4.05;;;;;;;24.94;37.17;98748.78;5085651;27;102691;-75
2023/06/16 08:20:10;;;;;;;8.57;4.63;;;;;;;25.99;37.90;98744.53;5084211;27;102925;-75
2023/06/16 08:22:38;;;;;;;4.72;3.63;;;;;;;27.05;37.84;98727.06;5067367;27;103260;-74
2023/06/16 08:25:07;;;;;;;4.07;3.67;;;;;;;27.09;34.39;98725.59;5076142;27;103204;-77
2023/06/16 08:27:35;;;;;;;4.00;3.60;;;;;;;27.19;35.13;98727.84;5057094;27;102789;-76
2023/06/16 08:30:06;;;;;;;3.90;3.47;;;;;;;27.61;34.10;98724.50;5080544;27;103596;-76
2023/06/16 08:32:36;;;;;;;5.43;3.90;;;;;;;27.79;33.59;98730.00;5068743;27;104100;-76
2023/06/16 08:35:06;;;;;;;5.28;3.95;;;;;;;28.12;33.06;98727.91;5058518;27;103444;-77
2023/06/16 08:37:33;;;;;;;6.53;4.18;;;;;;;27.32;33.41;98725.91;5063690;27;102802;-77
2023/06/16 08:40:02;;;;;;;4.00;3.15;;;;;;;28.82;29.83;98723.06;5077992;27;102916;-77
2023/06/16 08:42:31;;;;;;;4.60;3.45;;;;;;;27.84;30.24;98719.34;5073335;27;103311;-75
2023/06/16 08:45:02;;;;;;;5.27;3.63;;;;;;;28.18;29.86;98731.63;5067291;27;103173;-76
2023/06/16 08:47:30;;;;;;;4.37;3.80;;;;;;;27.96;30.67;98728.41;5060350;27;102808;-77
2023/06/16 08:49:59;;;;;;;6.20;3.87;;;;;;;28.09;30.03;98724.81;5059561;27;103344;-76
2023/06/16 08:52:30;;;;;;;4.37;3.63;;;;;;;28.18;30.27;98732.44;5076138;27;104053;-77
2023/06/16 08:55:14;;;;;;;3.72;3.33;;;;;;;29.02;29.88;98723.66;5077205;27;103233;-77
2023/06/16 08:57:46;;;;;;;4.30;3.42;;;;;;;29.87;28.63;98718.94;5087585;27;102696;-77
2023/06/16 09:00:16;;;;;;;4.30;3.70;;;;;;;29.13;29.93;98722.03;5069908;27;103164;-77
2023/06/16 09:02:48;;;;;;;3.65;3.35;;;;;;;30.04;28.12;98714.47;5063507;27;103592;-75
2023/06/16 09:05:19;;;;;;;4.07;3.30;;;;;;;30.06;26.89;98704.19;5082226;27;103076;-75
2023/06/16 09:07:49;;;;;;;5.30;3.65;;;;;;;29.48;29.26;98711.31;5062216;27;103000;-75
2023/06/16 09:10:18;;;;;;;6.28;3.70;;;;;;;29.02;29.46;98720.94;5060125;27;102872;-75
2023/06/16 09:12:52;;;;;;;4.70;3.58;;;;;;;29.41;28.02;98714.16;5075725;27;103339;-75
2023/06/16 09:15:21;;;;;;;3.67;3.13;;;;;;;31.02;29.31;98709.94;5057455;27;103327;-75
2023/06/16 09:17:49;;;;;;;4.38;3.78;;;;;;;29.03;26.68;98717.13;5073889;27;102692;-77
2023/06/16 09:20:22;;;;;;;4.43;3.63;;;;;;;29.91;28.16;98708.41;5074974;27;102895;-75
2023/06/16 09:22:59;;;;;;;4.00;3.60;;;;;;;30.32;25.76;98698.25;5079388;27;103394;-75
2023/06/16 09:25:33;;;;;;;4.03;3.33;;;;;;;30.55;26.30;98707.50;5083280;27;103229;-75
2023/06/16 09:28:08;;;;;;;3.67;3.38;;;;;;;30.18;27.05;98712.34;5086676;27;102729;-78
2023/06/16 09:30:37;;;;;;;4.10;3.23;;;;;;;28.67;27.96;98714.44;5083581;27;103605;-77
2023/06/16 09:33:09;;;;;;;3.83;3.33;;;;;;;29.99;27.51;98698.00;5069217;27;104341;-75
2023/06/16 09:35:42;;;;;;;3.83;3.17;;;;;;;28.50;27.95;98713.31;5068485;27;103256;-75
2023/06/16 09:38:11;;;;;;;5.37;3.60;;;;;;;27.79;29.09;98702.06;5054518;27;102785;-76
2023/06/16 09:40:42;;;;;;;4.57;3.47;;;;;;;28.22;29.43;98693.97;5061192;27;102889;-76
2023/06/16 09:43:16;;;;;;;5.43;4.10;;;;;;;28.00;28.99;98702.50;5080651;27;103286;-76
2023/06/16 09:45:44;;;;;;;4.22;3.80;;;;;;;28.96;28.29;98700.09;5077513;27;103403;-76
2023/06/16 09:48:13;;;;;;;5.30;3.77;;;;;;;28.65;28.80;98692.94;5074124;27;102683;-76
2023/06/16 09:50:44;;;;;;;6.50;3.53;;;;;;;29.83;28.52;98682.34;5071553;27;102834;-73
2023/06/16 09:53:18;;;;;;;6.93;3.93;;;;;;;30.35;27.94;98686.88;5055098;27;104338;-75
2023/06/16 09:55:47;;;;;;;4.97;3.70;;;;;;;31.54;29.09;98686.16;5054317;27;103328;-75
2023/06/16 09:58:15;;;;;;;5.40;4.07;;;;;;;29.82;27.48;98684.25;5069645;27;102650;-76
2023/06/16 10:00:54;;;;;;;4.50;3.60;;;;;;;31.22;26.54;98681.41;5082648;27;103324;-76
2023/06/16 10:03:24;;;;;;;4.35;3.60;;;;;;;31.77;27.06;98679.75;5060313;27;103228;-75
2023/06/16 10:05:55;;;;;;;4.10;3.70;;;;;;;30.68;27.49;98675.38;5081926;27;103305;-75
2023/06/16 10:08:23;;;;;;;4.97;3.80;;;;;;;28.83;29.90;98686.63;5083603;27;104070;-75
2023/06/16 10:10:53;;;;;;;4.77;3.50;;;;;;;27.78;30.82;98692.25;5062595;27;102838;-74
2023/06/16 10:13:22;;;;;;;4.70;4.20;;;;;;;27.10;31.10;98683.03;5061932;27;104348;-75
2023/06/16 10:15:51;;;;;;;5.03;3.73;;;;;;;28.34;30.09;98687.59;5067396;27;105147;-74
2023/06/16 10:18:25;;;;;;;5.45;3.97;;;;;;;29.33;29.44;98683.72;5081151;27;102951;-74
2023/06/16 10:20:54;;;;;;;4.03;3.60;;;;;;;29.45;29.49;98679.13;5082548;27;103249;-74
2023/06/16 10:23:22;;;;;;;4.03;3.63;;;;;;;29.40;28.23;98687.16;5062537;27;104263;-74
2023/06/16 10:25:50;;;;;;;4.45;3.72;;;;;;;29.74;28.32;98683.72;5082058;27;103251;-73
2023/06/16 10:28:19;;;;;;;5.28;3.60;;;;;;;30.40;28.00;98683.50;5066672;27;102794;-75
2023/06/16 10:30:48;;;;;;;5.13;3.80;;;;;;;30.31;27.46;98673.97;5074525;27;102858;-76
2023/06/16 10:33:18;;;;;;;4.90;3.70;;;;;;;31.08;26.17;98663.66;5057288;27;104287;-74
2023/06/16 10:35:51;;;;;;;3.90;3.53;;;;;;;31.52;25.92;98668.38;5068766;27;103439;-74
2023/06/16 10:38:36;;;;;;;4.53;3.50;;;;;;;31.08;26.24;98667.22;5071955;27;102928;-73
2023/06/16 10:41:06;;;;;;;4.82;3.53;;;;;;;31.80;25.60;98672.94;5057116;27;102774;-74
2023/06/16 10:43:34;;;;;;;4.00;3.50;;;;;;;31.42;26.60;98671.72;5059342;27;103884;-73
2023/06/16 10:46:25;;;;;;;4.18;3.78;;;;;;;29.12;26.10;98669.53;5077360;27;103366;-73
2023/06/16 10:48:57;;;;;;;4.03;3.55;;;;;;;28.55;27.53;98678.16;5076025;27;102842;-73
2023/06/16 10:51:45;;;;;;;4.20;3.80;;;;;;;28.89;27.53;98674.84;5079226;27;104012;-73
2023/06/16 10:54:16;;;;;;;5.85;4.10;;;;;;;29.35;27.50;98673.44;5075955;27;103887;-72
2023/06/16 10:57:04;;;;;;;3.63;3.33;;;;;;;28.48;28.24;98661.09;5059189;27;103218;-71
2023/06/16 10:59:55;;;;;;;4.00;3.70;;;;;;;28.54;28.43;98673.78;5075052;27;102708;-71
2023/06/16 11:02:24;;;;;;;4.57;3.70;;;;;;;29.83;28.44;98677.75;5060302;27;103920;-73
2023/06/16 11:05:11;;;;;;;5.07;3.95;;;;;;;30.39;25.55;98677.22;5056342;27;103815;-72
2023/06/16 11:07:40;;;;;;;3.63;3.20;;;;;;;31.23;25.20;98664.81;5074197;27;103150;-82
2023/06/16 11:10:11;;;;;;;4.45;3.67;;;;;;;29.74;25.24;98676.38;5068970;27;102727;-83
2023/06/16 11:12:38;;;;;;;4.13;3.50;;;;;;;30.27;27.10;98672.78;5071359;27;103820;-80
2023/06/16 11:15:07;;;;;;;4.32;3.42;;;;;;;30.62;26.49;98670.06;5076468;27;103885;-71
2023/06/16 11:17:39;;;;;;;5.40;3.80;;;;;;;31.47;24.65;98668.25;5078267;27;104264;-71
2023/06/16 11:20:09;;;;;;;4.43;3.75;;;;;;;31.42;24.29;98666.25;5062196;27;103105;-71
2023/06/16 11:22:38;;;;;;;4.10;3.70;;;;;;;31.70;24.21;98657.22;5079494;27;104176;-71
2023/06/16 11:25:07;;;;;;;3.97;3.55;;;;;;;31.66;24.34;98660.69;5063267;27;103702;-73
2023/06/16 11:27:38;;;;;;;5.43;3.70;;;;;;;31.13;25.43;98661.06;5066618;27;103215;-70
2023/06/16 11:30:08;;;;;;;4.23;3.83;;;;;;;31.00;25.73;98656.69;5073105;27;102853;-76
2023/06/16 11:32:37;;;;;;;4.60;3.53;;;;;;;31.11;25.57;98655.84;5068421;27;102639;-76
2023/06/16 11:35:11;;;;;;;4.15;3.72;;;;;;;29.58;26.28;98662.63;5079758;27;103254;-80
2023/06/16 11:37:51;;;;;;;4.00;3.60;;;;;;;30.37;24.98;98662.97;5070003;27;103640;-78
2023/06/16 11:40:48;;;;;;;4.10;3.53;;;;;;;30.04;25.10;98656.44;5068293;27;102882;-84